sensor_id;sensor_type;location;lat;lon;timestamp;P1;durP1;ratioP1;P2;durP2;ratioP2
38182;SDS011;23991;52.430;10.586;2024-01-16T00:00:14;3.90;;;1.80;;
38182;SDS011;23991;52.430;10.586;2024-01-16T00:02:40;3.72;;;1.90;;
38182;SDS011;23991;52.430;10.586;2024-01-16T00:05:06;4.15;;;1.50;;
38182;SDS011;23991;52.430;10.586;2024-01-16T00:07:32;4.03;;;1.60;;
38182;SDS011;23991;52.430;10.586;2024-01-16T00:09:59;8.98;;;2.20;;
38182;SDS011;23991;52.430;10.586;2024-01-16T00:12:25;5.13;;;1.80;;
38182;SDS011;23991;52.430;10.586;2024-01-16T00:14:51;3.63;;;1.90;;
38182;SDS011;23991;52.430;10.586;2024-01-16T00:17:16;4.45;;;1.80;;
38182;SDS011;23991;52.430;10.586;2024-01-16T00:19:42;5.38;;;1.67;;
38182;SDS011;23991;52.430;10.586;2024-01-16T00:22:07;7.90;;;2.20;;
38182;SDS011;23991;52.430;10.586;2024-01-16T00:24:33;5.63;;;1.90;;
38182;SDS011;23991;52.430;10.586;2024-01-16T00:26:59;4.30;;;1.40;;
38182;SDS011;23991;52.430;10.586;2024-01-16T00:29:24;4.60;;;2.10;;
38182;SDS011;23991;52.430;10.586;2024-01-16T00:31:50;6.07;;;1.77;;
38182;SDS011;23991;52.430;10.586;2024-01-16T00:34:16;5.45;;;1.98;;
38182;SDS011;23991;52.430;10.586;2024-01-16T00:36:42;4.40;;;1.80;;
38182;SDS011;23991;52.430;10.586;2024-01-16T00:39:07;6.18;;;2.25;;
38182;SDS011;23991;52.430;10.586;2024-01-16T00:41:33;4.63;;;1.80;;
38182;SDS011;23991;52.430;10.586;2024-01-16T00:43:59;7.78;;;2.05;;
38182;SDS011;23991;52.430;10.586;2024-01-16T00:46:24;5.50;;;2.00;;
38182;SDS011;23991;52.430;10.586;2024-01-16T00:48:50;5.47;;;2.00;;
38182;SDS011;23991;52.430;10.586;2024-01-16T00:51:15;5.50;;;1.70;;
38182;SDS011;23991;52.430;10.586;2024-01-16T00:53:41;4.65;;;1.75;;
38182;SDS011;23991;52.430;10.586;2024-01-16T00:56:07;3.65;;;1.83;;
38182;SDS011;23991;52.430;10.586;2024-01-16T00:58:33;5.72;;;1.95;;
38182;SDS011;23991;52.430;10.586;2024-01-16T01:00:59;3.25;;;1.67;;
38182;SDS011;23991;52.430;10.586;2024-01-16T01:03:25;2.72;;;1.92;;
38182;SDS011;23991;52.430;10.586;2024-01-16T01:05:50;2.83;;;1.67;;
38182;SDS011;23991;52.430;10.586;2024-01-16T01:08:16;6.47;;;1.92;;
38182;SDS011;23991;52.430;10.586;2024-01-16T01:10:42;4.10;;;1.58;;
38182;SDS011;23991;52.430;10.586;2024-01-16T01:13:08;3.47;;;1.70;;
38182;SDS011;23991;52.430;10.586;2024-01-16T01:15:33;4.85;;;1.90;;
38182;SDS011;23991;52.430;10.586;2024-01-16T01:17:59;7.80;;;1.85;;
38182;SDS011;23991;52.430;10.586;2024-01-16T01:20:25;3.50;;;1.77;;
38182;SDS011;23991;52.430;10.586;2024-01-16T01:22:50;6.85;;;1.95;;
38182;SDS011;23991;52.430;10.586;2024-01-16T01:25:16;5.05;;;2.03;;
38182;SDS011;23991;52.430;10.586;2024-01-16T01:27:42;3.45;;;1.80;;
38182;SDS011;23991;52.430;10.586;2024-01-16T01:30:08;4.03;;;1.85;;
38182;SDS011;23991;52.430;10.586;2024-01-16T01:32:37;6.25;;;2.00;;
38182;SDS011;23991;52.430;10.586;2024-01-16T01:35:04;5.45;;;2.92;;
38182;SDS011;23991;52.430;10.586;2024-01-16T01:37:30;4.60;;;1.60;;
38182;SDS011;23991;52.430;10.586;2024-01-16T01:39:56;3.75;;;1.60;;
38182;SDS011;23991;52.430;10.586;2024-01-16T01:42:21;7.03;;;2.58;;
38182;SDS011;23991;52.430;10.586;2024-01-16T01:44:47;2.47;;;1.65;;
38182;SDS011;23991;52.430;10.586;2024-01-16T01:47:13;4.60;;;1.85;;
38182;SDS011;23991;52.430;10.586;2024-01-16T01:49:39;4.38;;;1.58;;
38182;SDS011;23991;52.430;10.586;2024-01-16T01:52:06;4.57;;;1.52;;
38182;SDS011;23991;52.430;10.586;2024-01-16T01:54:33;4.53;;;1.35;;
38182;SDS011;23991;52.430;10.586;2024-01-16T01:57:02;1.55;;;1.08;;
38182;SDS011;23991;52.430;10.586;2024-01-16T01:59:29;3.33;;;1.75;;
38182;SDS011;23991;52.430;10.586;2024-01-16T02:01:55;6.47;;;1.40;;
38182;SDS011;23991;52.430;10.586;2024-01-16T02:04:22;4.85;;;2.00;;
38182;SDS011;23991;52.430;10.586;2024-01-16T02:06:49;4.03;;;1.70;;
38182;SDS011;23991;52.430;10.586;2024-01-16T02:12:37;4.68;;;1.50;;
38182;SDS011;23991;52.430;10.586;2024-01-16T02:15:03;2.92;;;1.65;;
38182;SDS011;23991;52.430;10.586;2024-01-16T02:17:28;5.38;;;1.83;;
38182;SDS011;23991;52.430;10.586;2024-01-16T02:19:54;4.20;;;1.58;;
38182;SDS011;23991;52.430;10.586;2024-01-16T02:22:20;3.60;;;1.65;;
38182;SDS011;23991;52.430;10.586;2024-01-16T02:24:48;7.18;;;1.50;;
38182;SDS011;23991;52.430;10.586;2024-01-16T02:27:14;3.28;;;1.40;;
38182;SDS011;23991;52.430;10.586;2024-01-16T02:29:41;2.28;;;1.27;;
38182;SDS011;23991;52.430;10.586;2024-01-16T02:32:07;2.42;;;1.35;;
38182;SDS011;23991;52.430;10.586;2024-01-16T02:34:35;3.63;;;1.40;;
38182;SDS011;23991;52.430;10.586;2024-01-16T02:37:00;2.38;;;1.20;;
38182;SDS011;23991;52.430;10.586;2024-01-16T02:39:26;2.00;;;1.08;;
38182;SDS011;23991;52.430;10.586;2024-01-16T02:41:51;5.55;;;2.05;;
38182;SDS011;23991;52.430;10.586;2024-01-16T02:44:17;4.82;;;1.30;;
38182;SDS011;23991;52.430;10.586;2024-01-16T02:46:42;1.67;;;0.98;;
38182;SDS011;23991;52.430;10.586;2024-01-16T02:49:08;3.25;;;1.20;;
38182;SDS011;23991;52.430;10.586;2024-01-16T02:51:34;2.97;;;1.00;;
38182;SDS011;23991;52.430;10.586;2024-01-16T02:53:59;4.85;;;1.23;;
38182;SDS011;23991;52.430;10.586;2024-01-16T02:56:25;3.80;;;1.27;;
38182;SDS011;23991;52.430;10.586;2024-01-16T02:58:50;2.30;;;1.10;;
38182;SDS011;23991;52.430;10.586;2024-01-16T03:01:16;2.05;;;1.30;;
38182;SDS011;23991;52.430;10.586;2024-01-16T03:03:42;4.25;;;1.50;;
38182;SDS011;23991;52.430;10.586;2024-01-16T03:06:07;4.70;;;1.60;;
38182;SDS011;23991;52.430;10.586;2024-01-16T03:08:33;4.57;;;1.65;;
38182;SDS011;23991;52.430;10.586;2024-01-16T03:10:58;2.42;;;1.77;;
38182;SDS011;23991;52.430;10.586;2024-01-16T03:13:24;3.88;;;1.90;;
38182;SDS011;23991;52.430;10.586;2024-01-16T03:15:50;5.57;;;1.60;;
38182;SDS011;23991;52.430;10.586;2024-01-16T03:18:15;3.17;;;1.60;;
38182;SDS011;23991;52.430;10.586;2024-01-16T03:20:42;5.72;;;2.55;;
38182;SDS011;23991;52.430;10.586;2024-01-16T03:23:08;4.57;;;1.70;;
38182;SDS011;23991;52.430;10.586;2024-01-16T03:25:34;8.00;;;1.80;;
38182;SDS011;23991;52.430;10.586;2024-01-16T03:28:04;3.92;;;1.75;;
38182;SDS011;23991;52.430;10.586;2024-01-16T03:30:32;6.63;;;1.60;;
38182;SDS011;23991;52.430;10.586;2024-01-16T03:32:58;7.63;;;1.95;;
38182;SDS011;23991;52.430;10.586;2024-01-16T03:35:24;6.45;;;1.70;;
38182;SDS011;23991;52.430;10.586;2024-01-16T03:37:49;3.70;;;2.05;;
38182;SDS011;23991;52.430;10.586;2024-01-16T03:40:15;3.83;;;1.50;;
38182;SDS011;23991;52.430;10.586;2024-01-16T03:42:41;4.63;;;1.50;;
38182;SDS011;23991;52.430;10.586;2024-01-16T03:45:06;6.57;;;1.35;;
38182;SDS011;23991;52.430;10.586;2024-01-16T03:47:33;4.65;;;1.40;;
38182;SDS011;23991;52.430;10.586;2024-01-16T03:49:58;6.28;;;1.52;;
38182;SDS011;23991;52.430;10.586;2024-01-16T03:52:24;2.63;;;1.30;;
38182;SDS011;23991;52.430;10.586;2024-01-16T03:54:49;3.97;;;1.48;;
38182;SDS011;23991;52.430;10.586;2024-01-16T03:57:15;2.95;;;1.20;;
38182;SDS011;23991;52.430;10.586;2024-01-16T03:59:41;4.40;;;1.30;;
38182;SDS011;23991;52.430;10.586;2024-01-16T04:02:06;2.53;;;1.48;;
38182;SDS011;23991;52.430;10.586;2024-01-16T04:04:32;9.32;;;1.58;;
38182;SDS011;23991;52.430;10.586;2024-01-16T04:06:57;2.00;;;1.40;;
38182;SDS011;23991;52.430;10.586;2024-01-16T04:09:23;3.70;;;1.50;;
38182;SDS011;23991;52.430;10.586;2024-01-16T04:11:52;3.22;;;1.42;;
38182;SDS011;23991;52.430;10.586;2024-01-16T04:14:17;2.63;;;1.42;;
38182;SDS011;23991;52.430;10.586;2024-01-16T04:16:43;4.90;;;1.30;;
38182;SDS011;23991;52.430;10.586;2024-01-16T04:19:09;5.22;;;1.30;;
38182;SDS011;23991;52.430;10.586;2024-01-16T04:21:35;4.07;;;1.42;;
38182;SDS011;23991;52.430;10.586;2024-01-16T04:24:01;4.82;;;1.30;;
38182;SDS011;23991;52.430;10.586;2024-01-16T04:26:27;3.03;;;1.40;;
38182;SDS011;23991;52.430;10.586;2024-01-16T04:28:52;3.42;;;1.65;;
38182;SDS011;23991;52.430;10.586;2024-01-16T04:31:18;3.15;;;1.50;;
38182;SDS011;23991;52.430;10.586;2024-01-16T04:33:46;3.35;;;1.52;;
38182;SDS011;23991;52.430;10.586;2024-01-16T04:36:12;5.28;;;1.38;;
38182;SDS011;23991;52.430;10.586;2024-01-16T04:38:38;2.45;;;1.20;;
38182;SDS011;23991;52.430;10.586;2024-01-16T04:41:03;2.78;;;1.20;;
38182;SDS011;23991;52.430;10.586;2024-01-16T04:43:29;4.82;;;1.45;;
38182;SDS011;23991;52.430;10.586;2024-01-16T04:45:55;5.45;;;2.38;;
38182;SDS011;23991;52.430;10.586;2024-01-16T04:48:21;3.38;;;1.67;;
38182;SDS011;23991;52.430;10.586;2024-01-16T04:50:46;2.42;;;1.40;;
38182;SDS011;23991;52.430;10.586;2024-01-16T04:53:12;3.70;;;1.30;;
38182;SDS011;23991;52.430;10.586;2024-01-16T04:55:38;5.85;;;1.70;;
38182;SDS011;23991;52.430;10.586;2024-01-16T04:58:04;5.72;;;1.60;;
38182;SDS011;23991;52.430;10.586;2024-01-16T05:00:31;6.43;;;2.03;;
38182;SDS011;23991;52.430;10.586;2024-01-16T05:02:57;4.80;;;1.73;;
38182;SDS011;23991;52.430;10.586;2024-01-16T05:05:23;3.03;;;1.50;;
38182;SDS011;23991;52.430;10.586;2024-01-16T05:07:49;5.22;;;1.77;;
38182;SDS011;23991;52.430;10.586;2024-01-16T05:10:14;8.30;;;2.13;;
38182;SDS011;23991;52.430;10.586;2024-01-16T05:12:40;8.70;;;2.30;;
38182;SDS011;23991;52.430;10.586;2024-01-16T05:15:06;3.70;;;1.63;;
38182;SDS011;23991;52.430;10.586;2024-01-16T05:17:33;7.00;;;2.20;;
38182;SDS011;23991;52.430;10.586;2024-01-16T05:19:58;11.93;;;1.90;;
38182;SDS011;23991;52.430;10.586;2024-01-16T05:22:24;4.10;;;1.77;;
38182;SDS011;23991;52.430;10.586;2024-01-16T05:24:50;6.22;;;2.10;;
38182;SDS011;23991;52.430;10.586;2024-01-16T05:27:16;5.93;;;1.88;;
38182;SDS011;23991;52.430;10.586;2024-01-16T05:29:42;5.45;;;1.92;;
38182;SDS011;23991;52.430;10.586;2024-01-16T05:32:10;4.70;;;1.73;;
38182;SDS011;23991;52.430;10.586;2024-01-16T05:34:36;4.78;;;2.13;;
38182;SDS011;23991;52.430;10.586;2024-01-16T05:37:01;6.13;;;2.28;;
38182;SDS011;23991;52.430;10.586;2024-01-16T05:39:28;6.97;;;2.10;;
38182;SDS011;23991;52.430;10.586;2024-01-16T05:41:53;6.50;;;1.90;;
38182;SDS011;23991;52.430;10.586;2024-01-16T05:44:19;10.35;;;2.15;;
38182;SDS011;23991;52.430;10.586;2024-01-16T05:46:44;3.97;;;2.25;;
38182;SDS011;23991;52.430;10.586;2024-01-16T05:49:10;4.85;;;1.75;;
38182;SDS011;23991;52.430;10.586;2024-01-16T05:51:36;5.47;;;2.03;;
38182;SDS011;23991;52.430;10.586;2024-01-16T05:54:02;4.88;;;1.67;;
38182;SDS011;23991;52.430;10.586;2024-01-16T05:56:28;3.20;;;1.58;;
38182;SDS011;23991;52.430;10.586;2024-01-16T05:58:55;7.50;;;2.03;;
38182;SDS011;23991;52.430;10.586;2024-01-16T06:01:21;7.43;;;2.30;;
38182;SDS011;23991;52.430;10.586;2024-01-16T06:03:47;8.75;;;1.83;;
38182;SDS011;23991;52.430;10.586;2024-01-16T06:06:14;14.63;;;2.38;;
38182;SDS011;23991;52.430;10.586;2024-01-16T06:08:39;5.10;;;2.17;;
38182;SDS011;23991;52.430;10.586;2024-01-16T06:11:05;6.72;;;1.80;;
38182;SDS011;23991;52.430;10.586;2024-01-16T06:13:31;12.00;;;2.45;;
38182;SDS011;23991;52.430;10.586;2024-01-16T06:15:57;6.05;;;1.85;;
38182;SDS011;23991;52.430;10.586;2024-01-16T06:18:23;8.35;;;2.30;;
38182;SDS011;23991;52.430;10.586;2024-01-16T06:20:49;9.13;;;2.00;;
38182;SDS011;23991;52.430;10.586;2024-01-16T06:23:14;10.95;;;2.45;;
38182;SDS011;23991;52.430;10.586;2024-01-16T06:25:40;6.18;;;2.03;;
38182;SDS011;23991;52.430;10.586;2024-01-16T06:28:06;9.88;;;3.03;;
38182;SDS011;23991;52.430;10.586;2024-01-16T06:30:32;10.30;;;2.30;;
38182;SDS011;23991;52.430;10.586;2024-01-16T06:32:58;10.93;;;3.33;;
38182;SDS011;23991;52.430;10.586;2024-01-16T06:35:26;8.63;;;3.20;;
38182;SDS011;23991;52.430;10.586;2024-01-16T06:37:52;14.10;;;3.60;;
38182;SDS011;23991;52.430;10.586;2024-01-16T06:40:17;8.82;;;3.50;;
38182;SDS011;23991;52.430;10.586;2024-01-16T06:42:43;11.55;;;3.13;;
38182;SDS011;23991;52.430;10.586;2024-01-16T06:45:09;8.02;;;3.50;;
38182;SDS011;23991;52.430;10.586;2024-01-16T06:47:35;9.30;;;2.65;;
38182;SDS011;23991;52.430;10.586;2024-01-16T06:50:00;11.10;;;2.95;;
38182;SDS011;23991;52.430;10.586;2024-01-16T06:52:26;6.80;;;3.33;;
38182;SDS011;23991;52.430;10.586;2024-01-16T06:54:52;7.20;;;2.80;;
38182;SDS011;23991;52.430;10.586;2024-01-16T06:57:17;9.00;;;2.78;;
38182;SDS011;23991;52.430;10.586;2024-01-16T06:59:43;13.88;;;4.32;;
38182;SDS011;23991;52.430;10.586;2024-01-16T07:02:08;12.80;;;3.35;;
38182;SDS011;23991;52.430;10.586;2024-01-16T07:04:34;12.60;;;2.92;;
38182;SDS011;23991;52.430;10.586;2024-01-16T07:07:00;12.43;;;3.20;;
38182;SDS011;23991;52.430;10.586;2024-01-16T07:09:26;8.20;;;2.95;;
38182;SDS011;23991;52.430;10.586;2024-01-16T07:11:52;10.50;;;3.15;;
38182;SDS011;23991;52.430;10.586;2024-01-16T07:14:18;6.38;;;3.03;;
38182;SDS011;23991;52.430;10.586;2024-01-16T07:16:44;8.02;;;3.25;;
38182;SDS011;23991;52.430;10.586;2024-01-16T07:19:10;9.60;;;2.90;;
38182;SDS011;23991;52.430;10.586;2024-01-16T07:21:36;6.45;;;3.22;;
38182;SDS011;23991;52.430;10.586;2024-01-16T07:24:02;10.10;;;2.63;;
38182;SDS011;23991;52.430;10.586;2024-01-16T07:26:28;8.63;;;2.95;;
38182;SDS011;23991;52.430;10.586;2024-01-16T07:28:54;6.82;;;3.60;;
38182;SDS011;23991;52.430;10.586;2024-01-16T07:31:20;8.43;;;2.85;;
38182;SDS011;23991;52.430;10.586;2024-01-16T07:33:46;10.07;;;3.63;;
38182;SDS011;23991;52.430;10.586;2024-01-16T07:36:11;6.18;;;2.47;;
38182;SDS011;23991;52.430;10.586;2024-01-16T07:38:39;11.80;;;2.22;;
38182;SDS011;23991;52.430;10.586;2024-01-16T07:41:05;8.00;;;2.28;;
38182;SDS011;23991;52.430;10.586;2024-01-16T07:43:30;7.55;;;2.92;;
38182;SDS011;23991;52.430;10.586;2024-01-16T07:45:56;7.85;;;2.88;;
38182;SDS011;23991;52.430;10.586;2024-01-16T07:48:22;6.25;;;2.50;;
38182;SDS011;23991;52.430;10.586;2024-01-16T07:50:48;7.05;;;2.70;;
38182;SDS011;23991;52.430;10.586;2024-01-16T07:53:14;8.00;;;2.50;;
38182;SDS011;23991;52.430;10.586;2024-01-16T07:55:41;8.07;;;2.90;;
38182;SDS011;23991;52.430;10.586;2024-01-16T07:58:07;6.78;;;2.67;;
38182;SDS011;23991;52.430;10.586;2024-01-16T08:00:34;13.18;;;3.17;;
38182;SDS011;23991;52.430;10.586;2024-01-16T08:03:00;7.78;;;2.58;;
38182;SDS011;23991;52.430;10.586;2024-01-16T08:05:26;11.50;;;3.40;;
38182;SDS011;23991;52.430;10.586;2024-01-16T08:07:53;8.88;;;3.72;;
38182;SDS011;23991;52.430;10.586;2024-01-16T08:10:19;6.45;;;2.97;;
38182;SDS011;23991;52.430;10.586;2024-01-16T08:12:44;10.40;;;2.60;;
38182;SDS011;23991;52.430;10.586;2024-01-16T08:15:10;6.20;;;2.70;;
38182;SDS011;23991;52.430;10.586;2024-01-16T08:17:36;11.75;;;3.05;;
38182;SDS011;23991;52.430;10.586;2024-01-16T08:20:02;6.10;;;2.25;;
38182;SDS011;23991;52.430;10.586;2024-01-16T08:22:28;11.52;;;2.70;;
38182;SDS011;23991;52.430;10.586;2024-01-16T08:24:54;9.90;;;3.53;;
38182;SDS011;23991;52.430;10.586;2024-01-16T08:27:20;6.20;;;2.85;;
38182;SDS011;23991;52.430;10.586;2024-01-16T08:29:45;7.32;;;2.60;;
38182;SDS011;23991;52.430;10.586;2024-01-16T08:32:13;5.85;;;2.65;;
38182;SDS011;23991;52.430;10.586;2024-01-16T08:34:39;5.88;;;2.60;;
38182;SDS011;23991;52.430;10.586;2024-01-16T08:37:04;9.38;;;3.92;;
38182;SDS011;23991;52.430;10.586;2024-01-16T08:39:30;10.80;;;2.75;;
38182;SDS011;23991;52.430;10.586;2024-01-16T08:41:58;13.50;;;3.05;;
38182;SDS011;23991;52.430;10.586;2024-01-16T08:44:24;8.82;;;2.78;;
38182;SDS011;23991;52.430;10.586;2024-01-16T08:46:49;8.02;;;2.80;;
38182;SDS011;23991;52.430;10.586;2024-01-16T08:49:15;8.63;;;3.47;;
38182;SDS011;23991;52.430;10.586;2024-01-16T08:51:41;9.02;;;3.25;;
38182;SDS011;23991;52.430;10.586;2024-01-16T08:54:06;4.50;;;2.50;;
38182;SDS011;23991;52.430;10.586;2024-01-16T08:56:32;8.68;;;3.13;;
38182;SDS011;23991;52.430;10.586;2024-01-16T08:58:58;7.75;;;2.90;;
38182;SDS011;23991;52.430;10.586;2024-01-16T09:01:23;7.88;;;3.15;;
38182;SDS011;23991;52.430;10.586;2024-01-16T09:03:49;14.90;;;3.30;;
38182;SDS011;23991;52.430;10.586;2024-01-16T09:06:15;16.30;;;4.15;;
38182;SDS011;23991;52.430;10.586;2024-01-16T09:08:40;10.35;;;2.95;;
38182;SDS011;23991;52.430;10.586;2024-01-16T09:11:06;9.10;;;3.30;;
38182;SDS011;23991;52.430;10.586;2024-01-16T09:13:32;9.98;;;3.13;;
38182;SDS011;23991;52.430;10.586;2024-01-16T09:15:58;7.10;;;2.92;;
38182;SDS011;23991;52.430;10.586;2024-01-16T09:18:24;5.63;;;3.00;;
38182;SDS011;23991;52.430;10.586;2024-01-16T09:20:49;11.32;;;3.70;;
38182;SDS011;23991;52.430;10.586;2024-01-16T09:23:15;7.22;;;3.50;;
38182;SDS011;23991;52.430;10.586;2024-01-16T09:25:41;5.78;;;3.15;;
38182;SDS011;23991;52.430;10.586;2024-01-16T09:28:06;9.18;;;3.72;;
38182;SDS011;23991;52.430;10.586;2024-01-16T09:30:32;5.43;;;2.78;;
38182;SDS011;23991;52.430;10.586;2024-01-16T09:32:58;8.90;;;2.95;;
38182;SDS011;23991;52.430;10.586;2024-01-16T09:35:24;6.93;;;3.00;;
38182;SDS011;23991;52.430;10.586;2024-01-16T09:37:49;10.68;;;3.45;;
38182;SDS011;23991;52.430;10.586;2024-01-16T09:40:16;9.93;;;2.80;;
38182;SDS011;23991;52.430;10.586;2024-01-16T09:42:42;7.78;;;2.83;;
38182;SDS011;23991;52.430;10.586;2024-01-16T09:45:08;8.73;;;3.20;;
38182;SDS011;23991;52.430;10.586;2024-01-16T09:47:35;7.78;;;3.40;;
38182;SDS011;23991;52.430;10.586;2024-01-16T09:50:02;9.30;;;2.60;;
38182;SDS011;23991;52.430;10.586;2024-01-16T09:52:29;9.00;;;2.72;;
38182;SDS011;23991;52.430;10.586;2024-01-16T09:54:55;7.38;;;2.90;;
38182;SDS011;23991;52.430;10.586;2024-01-16T09:57:23;9.45;;;3.03;;
38182;SDS011;23991;52.430;10.586;2024-01-16T09:59:54;7.15;;;2.88;;
38182;SDS011;23991;52.430;10.586;2024-01-16T10:02:22;7.22;;;3.00;;
38182;SDS011;23991;52.430;10.586;2024-01-16T10:04:49;8.23;;;3.50;;
38182;SDS011;23991;52.430;10.586;2024-01-16T10:07:15;11.18;;;3.05;;
38182;SDS011;23991;52.430;10.586;2024-01-16T10:09:43;10.05;;;3.60;;
38182;SDS011;23991;52.430;10.586;2024-01-16T10:12:09;8.05;;;2.90;;
38182;SDS011;23991;52.430;10.586;2024-01-16T10:14:35;9.48;;;3.03;;
38182;SDS011;23991;52.430;10.586;2024-01-16T10:17:02;7.68;;;3.13;;
38182;SDS011;23991;52.430;10.586;2024-01-16T10:19:51;7.68;;;3.38;;
38182;SDS011;23991;52.430;10.586;2024-01-16T10:22:22;6.93;;;3.40;;
38182;SDS011;23991;52.430;10.586;2024-01-16T10:24:50;8.38;;;2.85;;
38182;SDS011;23991;52.430;10.586;2024-01-16T10:27:35;7.90;;;2.83;;
38182;SDS011;23991;52.430;10.586;2024-01-16T10:30:01;9.93;;;2.95;;
38182;SDS011;23991;52.430;10.586;2024-01-16T10:32:31;5.25;;;2.88;;
38182;SDS011;23991;52.430;10.586;2024-01-16T10:35:10;12.40;;;2.80;;
38182;SDS011;23991;52.430;10.586;2024-01-16T10:37:44;10.27;;;3.42;;
38182;SDS011;23991;52.430;10.586;2024-01-16T10:40:17;11.27;;;3.22;;
38182;SDS011;23991;52.430;10.586;2024-01-16T10:42:44;6.90;;;3.22;;
38182;SDS011;23991;52.430;10.586;2024-01-16T10:45:17;10.27;;;3.28;;
38182;SDS011;23991;52.430;10.586;2024-01-16T10:47:45;5.82;;;2.90;;
38182;SDS011;23991;52.430;10.586;2024-01-16T10:50:11;8.30;;;3.28;;
38182;SDS011;23991;52.430;10.586;2024-01-16T10:52:39;6.85;;;2.78;;
38182;SDS011;23991;52.430;10.586;2024-01-16T10:55:11;8.65;;;2.40;;
38182;SDS011;23991;52.430;10.586;2024-01-16T10:57:45;10.93;;;3.92;;
38182;SDS011;23991;52.430;10.586;2024-01-16T11:00:12;5.97;;;3.15;;
38182;SDS011;23991;52.430;10.586;2024-01-16T11:02:44;7.95;;;2.75;;
38182;SDS011;23991;52.430;10.586;2024-01-16T11:05:17;9.57;;;2.88;;
38182;SDS011;23991;52.430;10.586;2024-01-16T11:07:43;5.65;;;3.13;;
38182;SDS011;23991;52.430;10.586;2024-01-16T11:10:10;4.85;;;3.05;;
38182;SDS011;23991;52.430;10.586;2024-01-16T11:12:39;5.57;;;2.33;;
38182;SDS011;23991;52.430;10.586;2024-01-16T11:15:06;6.75;;;3.30;;
38182;SDS011;23991;52.430;10.586;2024-01-16T11:17:37;6.20;;;2.60;;
38182;SDS011;23991;52.430;10.586;2024-01-16T11:20:03;8.20;;;2.58;;
38182;SDS011;23991;52.430;10.586;2024-01-16T11:22:38;7.60;;;3.00;;
38182;SDS011;23991;52.430;10.586;2024-01-16T11:25:16;5.13;;;2.65;;
38182;SDS011;23991;52.430;10.586;2024-01-16T11:27:43;4.82;;;2.42;;
38182;SDS011;23991;52.430;10.586;2024-01-16T11:30:13;9.70;;;3.08;;
38182;SDS011;23991;52.430;10.586;2024-01-16T11:32:54;4.30;;;2.53;;
38182;SDS011;23991;52.430;10.586;2024-01-16T11:35:31;8.90;;;2.58;;
38182;SDS011;23991;52.430;10.586;2024-01-16T11:38:15;10.52;;;3.72;;
38182;SDS011;23991;52.430;10.586;2024-01-16T11:40:41;5.07;;;2.60;;
38182;SDS011;23991;52.430;10.586;2024-01-16T11:45:59;11.48;;;3.42;;
38182;SDS011;23991;52.430;10.586;2024-01-16T11:48:29;7.55;;;2.78;;
38182;SDS011;23991;52.430;10.586;2024-01-16T11:50:55;8.07;;;3.15;;
38182;SDS011;23991;52.430;10.586;2024-01-16T12:02:10;8.93;;;3.95;;
38182;SDS011;23991;52.430;10.586;2024-01-16T12:04:43;9.90;;;3.65;;
38182;SDS011;23991;52.430;10.586;2024-01-16T12:07:18;8.13;;;3.53;;
38182;SDS011;23991;52.430;10.586;2024-01-16T12:09:44;9.45;;;4.00;;
38182;SDS011;23991;52.430;10.586;2024-01-16T12:12:09;6.65;;;2.78;;
38182;SDS011;23991;52.430;10.586;2024-01-16T12:14:37;5.57;;;3.05;;
38182;SDS011;23991;52.430;10.586;2024-01-16T12:17:12;7.63;;;3.20;;
38182;SDS011;23991;52.430;10.586;2024-01-16T12:19:38;8.98;;;3.05;;
38182;SDS011;23991;52.430;10.586;2024-01-16T12:22:10;6.20;;;2.80;;
38182;SDS011;23991;52.430;10.586;2024-01-16T12:24:38;8.88;;;2.80;;
38182;SDS011;23991;52.430;10.586;2024-01-16T12:27:04;9.05;;;3.38;;
38182;SDS011;23991;52.430;10.586;2024-01-16T12:29:30;7.05;;;3.40;;
38182;SDS011;23991;52.430;10.586;2024-01-16T12:32:10;9.73;;;3.22;;
38182;SDS011;23991;52.430;10.586;2024-01-16T12:34:48;5.63;;;2.80;;
38182;SDS011;23991;52.430;10.586;2024-01-16T12:37:14;8.82;;;2.67;;
38182;SDS011;23991;52.430;10.586;2024-01-16T12:39:40;6.53;;;2.58;;
38182;SDS011;23991;52.430;10.586;2024-01-16T12:42:09;5.50;;;2.35;;
38182;SDS011;23991;52.430;10.586;2024-01-16T12:44:36;9.70;;;2.63;;
38182;SDS011;23991;52.430;10.586;2024-01-16T12:47:02;4.32;;;2.47;;
38182;SDS011;23991;52.430;10.586;2024-01-16T12:49:28;5.75;;;2.50;;
38182;SDS011;23991;52.430;10.586;2024-01-16T12:55:00;5.90;;;2.88;;
38182;SDS011;23991;52.430;10.586;2024-01-16T12:57:26;6.28;;;2.50;;
38182;SDS011;23991;52.430;10.586;2024-01-16T12:59:52;4.47;;;2.30;;
38182;SDS011;23991;52.430;10.586;2024-01-16T13:02:24;8.15;;;2.13;;
38182;SDS011;23991;52.430;10.586;2024-01-16T13:04:59;4.82;;;2.08;;
38182;SDS011;23991;52.430;10.586;2024-01-16T13:07:27;8.40;;;2.30;;
38182;SDS011;23991;52.430;10.586;2024-01-16T13:10:08;7.50;;;2.30;;
38182;SDS011;23991;52.430;10.586;2024-01-16T13:12:43;6.38;;;3.83;;
38182;SDS011;23991;52.430;10.586;2024-01-16T13:15:09;5.82;;;2.55;;
38182;SDS011;23991;52.430;10.586;2024-01-16T13:17:36;6.93;;;3.50;;
38182;SDS011;23991;52.430;10.586;2024-01-16T13:20:02;7.15;;;2.47;;
38182;SDS011;23991;52.430;10.586;2024-01-16T13:22:34;4.55;;;2.20;;
38182;SDS011;23991;52.430;10.586;2024-01-16T13:25:01;6.05;;;2.67;;
38182;SDS011;23991;52.430;10.586;2024-01-16T13:27:27;5.05;;;2.30;;
38182;SDS011;23991;52.430;10.586;2024-01-16T13:29:55;6.43;;;2.17;;
38182;SDS011;23991;52.430;10.586;2024-01-16T13:32:30;3.97;;;2.80;;
38182;SDS011;23991;52.430;10.586;2024-01-16T13:34:55;6.25;;;2.42;;
38182;SDS011;23991;52.430;10.586;2024-01-16T13:37:22;11.07;;;3.53;;
38182;SDS011;23991;52.430;10.586;2024-01-16T13:39:48;6.20;;;3.72;;
38182;SDS011;23991;52.430;10.586;2024-01-16T13:42:14;8.25;;;2.78;;
38182;SDS011;23991;52.430;10.586;2024-01-16T13:47:10;5.55;;;2.70;;
38182;SDS011;23991;52.430;10.586;2024-01-16T13:49:35;6.63;;;3.00;;
38182;SDS011;23991;52.430;10.586;2024-01-16T13:52:01;6.47;;;2.90;;
38182;SDS011;23991;52.430;10.586;2024-01-16T13:54:28;6.03;;;3.00;;
38182;SDS011;23991;52.430;10.586;2024-01-16T13:56:54;5.60;;;2.97;;
38182;SDS011;23991;52.430;10.586;2024-01-16T13:59:19;6.63;;;3.00;;
38182;SDS011;23991;52.430;10.586;2024-01-16T14:01:45;12.13;;;3.53;;
38182;SDS011;23991;52.430;10.586;2024-01-16T14:04:12;6.38;;;2.85;;
38182;SDS011;23991;52.430;10.586;2024-01-16T14:06:38;7.85;;;3.28;;
38182;SDS011;23991;52.430;10.586;2024-01-16T14:09:04;7.45;;;3.38;;
38182;SDS011;23991;52.430;10.586;2024-01-16T14:11:32;8.30;;;3.53;;
38182;SDS011;23991;52.430;10.586;2024-01-16T14:13:58;8.32;;;3.20;;
38182;SDS011;23991;52.430;10.586;2024-01-16T14:16:27;10.40;;;4.00;;
38182;SDS011;23991;52.430;10.586;2024-01-16T14:18:53;10.18;;;3.90;;
38182;SDS011;23991;52.430;10.586;2024-01-16T14:21:19;10.32;;;3.63;;
38182;SDS011;23991;52.430;10.586;2024-01-16T14:23:45;6.82;;;4.70;;
38182;SDS011;23991;52.430;10.586;2024-01-16T14:26:10;7.40;;;4.35;;
38182;SDS011;23991;52.430;10.586;2024-01-16T14:28:36;11.57;;;4.63;;
38182;SDS011;23991;52.430;10.586;2024-01-16T14:31:02;9.43;;;4.75;;
38182;SDS011;23991;52.430;10.586;2024-01-16T14:33:28;9.15;;;4.50;;
38182;SDS011;23991;52.430;10.586;2024-01-16T14:35:53;7.40;;;4.07;;
38182;SDS011;23991;52.430;10.586;2024-01-16T14:38:20;7.85;;;4.05;;
38182;SDS011;23991;52.430;10.586;2024-01-16T14:40:45;9.65;;;4.30;;
38182;SDS011;23991;52.430;10.586;2024-01-16T14:43:11;8.45;;;4.30;;
38182;SDS011;23991;52.430;10.586;2024-01-16T14:45:37;10.93;;;3.95;;
38182;SDS011;23991;52.430;10.586;2024-01-16T14:48:03;11.00;;;5.20;;
38182;SDS011;23991;52.430;10.586;2024-01-16T14:50:30;9.20;;;4.72;;